sensor_id;sensor_type;location;lat;lon;timestamp;P1;durP1;ratioP1;P2;durP2;ratioP2
7402;SDS011;3742;48.770;11.440;2022-07-29T00:01:30;2.88;;;2.58;;
7402;SDS011;3742;48.770;11.440;2022-07-29T00:03:58;4.53;;;2.30;;
7402;SDS011;3742;48.770;11.440;2022-07-29T00:06:27;6.28;;;2.40;;
7402;SDS011;3742;48.770;11.440;2022-07-29T00:08:55;4.38;;;2.60;;
7402;SDS011;3742;48.770;11.440;2022-07-29T00:11:25;3.10;;;2.78;;
7402;SDS011;3742;48.770;11.440;2022-07-29T00:13:53;6.28;;;2.83;;
7402;SDS011;3742;48.770;11.440;2022-07-29T00:16:22;3.50;;;3.20;;
7402;SDS011;3742;48.770;11.440;2022-07-29T00:18:50;5.95;;;3.15;;
7402;SDS011;3742;48.770;11.440;2022-07-29T00:21:19;3.90;;;3.53;;
7402;SDS011;3742;48.770;11.440;2022-07-29T00:23:47;4.38;;;2.90;;
7402;SDS011;3742;48.770;11.440;2022-07-29T00:26:16;4.85;;;3.60;;
7402;SDS011;3742;48.770;11.440;2022-07-29T00:28:45;3.22;;;2.80;;
7402;SDS011;3742;48.770;11.440;2022-07-29T00:31:14;4.65;;;3.35;;
7402;SDS011;3742;48.770;11.440;2022-07-29T00:33:42;4.65;;;3.30;;
7402;SDS011;3742;48.770;11.440;2022-07-29T00:36:11;4.85;;;2.95;;
7402;SDS011;3742;48.770;11.440;2022-07-29T00:38:38;3.63;;;3.13;;
7402;SDS011;3742;48.770;11.440;2022-07-29T00:41:08;3.72;;;3.20;;
7402;SDS011;3742;48.770;11.440;2022-07-29T00:43:36;5.35;;;3.80;;
7402;SDS011;3742;48.770;11.440;2022-07-29T00:46:06;6.15;;;3.10;;
7402;SDS011;3742;48.770;11.440;2022-07-29T00:48:35;3.83;;;3.42;;
7402;SDS011;3742;48.770;11.440;2022-07-29T00:51:04;4.07;;;3.60;;
7402;SDS011;3742;48.770;11.440;2022-07-29T00:53:34;4.20;;;3.80;;
7402;SDS011;3742;48.770;11.440;2022-07-29T00:56:03;4.07;;;3.67;;
7402;SDS011;3742;48.770;11.440;2022-07-29T00:58:32;6.03;;;3.83;;
7402;SDS011;3742;48.770;11.440;2022-07-29T01:01:00;6.28;;;3.75;;
7402;SDS011;3742;48.770;11.440;2022-07-29T01:03:30;4.43;;;3.45;;
7402;SDS011;3742;48.770;11.440;2022-07-29T01:05:58;4.03;;;3.60;;
7402;SDS011;3742;48.770;11.440;2022-07-29T01:08:27;5.28;;;3.92;;
7402;SDS011;3742;48.770;11.440;2022-07-29T01:10:56;4.07;;;3.67;;
7402;SDS011;3742;48.770;11.440;2022-07-29T01:13:24;4.53;;;3.42;;
7402;SDS011;3742;48.770;11.440;2022-07-29T01:15:54;5.25;;;3.75;;
7402;SDS011;3742;48.770;11.440;2022-07-29T01:18:28;5.38;;;3.40;;
7402;SDS011;3742;48.770;11.440;2022-07-29T01:21:11;5.20;;;3.30;;
7402;SDS011;3742;48.770;11.440;2022-07-29T01:24:07;8.52;;;3.08;;
7402;SDS011;3742;48.770;11.440;2022-07-29T01:26:45;6.35;;;3.40;;
7402;SDS011;3742;48.770;11.440;2022-07-29T01:29:21;4.70;;;3.40;;
7402;SDS011;3742;48.770;11.440;2022-07-29T01:31:56;7.60;;;3.70;;
7402;SDS011;3742;48.770;11.440;2022-07-29T01:34:30;4.55;;;3.42;;
7402;SDS011;3742;48.770;11.440;2022-07-29T01:37:01;5.35;;;3.50;;
7402;SDS011;3742;48.770;11.440;2022-07-29T01:39:33;5.53;;;4.35;;
7402;SDS011;3742;48.770;11.440;2022-07-29T01:42:06;3.72;;;3.42;;
7402;SDS011;3742;48.770;11.440;2022-07-29T01:44:41;4.22;;;3.53;;
7402;SDS011;3742;48.770;11.440;2022-07-29T01:47:15;4.10;;;3.65;;
7402;SDS011;3742;48.770;11.440;2022-07-29T01:49:48;3.85;;;3.20;;
7402;SDS011;3742;48.770;11.440;2022-07-29T01:52:20;4.15;;;3.72;;
7402;SDS011;3742;48.770;11.440;2022-07-29T01:54:52;4.28;;;3.50;;
7402;SDS011;3742;48.770;11.440;2022-07-29T01:57:23;5.88;;;4.05;;
7402;SDS011;3742;48.770;11.440;2022-07-29T01:59:54;4.85;;;3.42;;
7402;SDS011;3742;48.770;11.440;2022-07-29T02:02:24;5.88;;;3.85;;
7402;SDS011;3742;48.770;11.440;2022-07-29T02:04:54;4.40;;;4.00;;
7402;SDS011;3742;48.770;11.440;2022-07-29T02:07:23;4.75;;;3.72;;
7402;SDS011;3742;48.770;11.440;2022-07-29T02:09:52;3.67;;;3.05;;
7402;SDS011;3742;48.770;11.440;2022-07-29T02:12:21;6.72;;;3.70;;
7402;SDS011;3742;48.770;11.440;2022-07-29T02:14:52;4.97;;;3.33;;
7402;SDS011;3742;48.770;11.440;2022-07-29T02:17:23;5.47;;;3.22;;
7402;SDS011;3742;48.770;11.440;2022-07-29T02:19:56;4.40;;;3.33;;
7402;SDS011;3742;48.770;11.440;2022-07-29T02:22:28;3.60;;;3.25;;
7402;SDS011;3742;48.770;11.440;2022-07-29T02:24:58;3.67;;;3.38;;
7402;SDS011;3742;48.770;11.440;2022-07-29T02:27:29;5.15;;;3.35;;
7402;SDS011;3742;48.770;11.440;2022-07-29T02:29:57;4.18;;;3.72;;
7402;SDS011;3742;48.770;11.440;2022-07-29T02:32:28;4.88;;;3.30;;
7402;SDS011;3742;48.770;11.440;2022-07-29T02:34:57;4.38;;;3.20;;
7402;SDS011;3742;48.770;11.440;2022-07-29T02:37:26;4.28;;;3.20;;
7402;SDS011;3742;48.770;11.440;2022-07-29T02:39:56;5.25;;;3.75;;
7402;SDS011;3742;48.770;11.440;2022-07-29T02:42:26;6.22;;;3.95;;
7402;SDS011;3742;48.770;11.440;2022-07-29T02:44:55;4.50;;;3.53;;
7402;SDS011;3742;48.770;11.440;2022-07-29T02:47:26;4.22;;;3.50;;
7402;SDS011;3742;48.770;11.440;2022-07-29T02:50:09;5.20;;;4.20;;
7402;SDS011;3742;48.770;11.440;2022-07-29T02:52:41;6.00;;;3.90;;
7402;SDS011;3742;48.770;11.440;2022-07-29T02:55:14;4.65;;;3.35;;
7402;SDS011;3742;48.770;11.440;2022-07-29T02:57:46;4.05;;;3.50;;
7402;SDS011;3742;48.770;11.440;2022-07-29T03:00:21;4.55;;;3.40;;
7402;SDS011;3742;48.770;11.440;2022-07-29T03:02:52;3.97;;;3.58;;
7402;SDS011;3742;48.770;11.440;2022-07-29T03:05:22;3.72;;;3.40;;
7402;SDS011;3742;48.770;11.440;2022-07-29T03:07:52;9.68;;;7.85;;
7402;SDS011;3742;48.770;11.440;2022-07-29T03:10:23;5.28;;;3.88;;
7402;SDS011;3742;48.770;11.440;2022-07-29T03:12:53;4.15;;;3.75;;
7402;SDS011;3742;48.770;11.440;2022-07-29T03:15:22;4.97;;;3.95;;
7402;SDS011;3742;48.770;11.440;2022-07-29T03:17:52;3.75;;;3.38;;
7402;SDS011;3742;48.770;11.440;2022-07-29T03:20:22;3.63;;;3.30;;
7402;SDS011;3742;48.770;11.440;2022-07-29T03:22:51;3.88;;;3.00;;
7402;SDS011;3742;48.770;11.440;2022-07-29T03:25:20;3.50;;;3.20;;
7402;SDS011;3742;48.770;11.440;2022-07-29T03:27:48;4.47;;;2.95;;
7402;SDS011;3742;48.770;11.440;2022-07-29T03:30:17;3.55;;;2.95;;
7402;SDS011;3742;48.770;11.440;2022-07-29T03:32:48;3.30;;;3.00;;
7402;SDS011;3742;48.770;11.440;2022-07-29T03:35:20;4.43;;;3.33;;
7402;SDS011;3742;48.770;11.440;2022-07-29T03:37:48;3.05;;;2.80;;
7402;SDS011;3742;48.770;11.440;2022-07-29T03:40:18;3.38;;;3.08;;
7402;SDS011;3742;48.770;11.440;2022-07-29T03:42:50;4.80;;;3.20;;
7402;SDS011;3742;48.770;11.440;2022-07-29T03:45:20;3.70;;;3.30;;
7402;SDS011;3742;48.770;11.440;2022-07-29T03:47:53;5.47;;;3.67;;
7402;SDS011;3742;48.770;11.440;2022-07-29T03:50:28;3.70;;;3.15;;
7402;SDS011;3742;48.770;11.440;2022-07-29T03:52:57;3.38;;;3.08;;
7402;SDS011;3742;48.770;11.440;2022-07-29T03:55:26;4.77;;;3.20;;
7402;SDS011;3742;48.770;11.440;2022-07-29T03:57:56;3.30;;;3.00;;
7402;SDS011;3742;48.770;11.440;2022-07-29T04:00:25;3.27;;;2.87;;
7402;SDS011;3742;48.770;11.440;2022-07-29T04:02:55;3.78;;;3.15;;
7402;SDS011;3742;48.770;11.440;2022-07-29T04:05:24;3.90;;;2.90;;
7402;SDS011;3742;48.770;11.440;2022-07-29T04:07:54;5.35;;;2.95;;
7402;SDS011;3742;48.770;11.440;2022-07-29T04:10:23;4.00;;;2.75;;
7402;SDS011;3742;48.770;11.440;2022-07-29T04:12:58;4.35;;;3.10;;
7402;SDS011;3742;48.770;11.440;2022-07-29T04:15:27;3.30;;;3.00;;
7402;SDS011;3742;48.770;11.440;2022-07-29T04:17:57;4.15;;;3.20;;
7402;SDS011;3742;48.770;11.440;2022-07-29T04:20:26;5.57;;;3.78;;
7402;SDS011;3742;48.770;11.440;2022-07-29T04:22:56;4.53;;;3.80;;
7402;SDS011;3742;48.770;11.440;2022-07-29T04:25:25;6.20;;;4.38;;
7402;SDS011;3742;48.770;11.440;2022-07-29T04:27:53;8.02;;;4.20;;
7402;SDS011;3742;48.770;11.440;2022-07-29T04:30:31;4.68;;;3.95;;
7402;SDS011;3742;48.770;11.440;2022-07-29T04:33:00;3.53;;;2.97;;
7402;SDS011;3742;48.770;11.440;2022-07-29T04:35:29;5.22;;;3.83;;
7402;SDS011;3742;48.770;11.440;2022-07-29T04:38:05;4.70;;;3.60;;
7402;SDS011;3742;48.770;11.440;2022-07-29T04:40:43;5.53;;;3.90;;
7402;SDS011;3742;48.770;11.440;2022-07-29T04:43:15;5.13;;;3.97;;
7402;SDS011;3742;48.770;11.440;2022-07-29T04:45:49;5.47;;;3.63;;
7402;SDS011;3742;48.770;11.440;2022-07-29T04:48:17;5.40;;;3.80;;
7402;SDS011;3742;48.770;11.440;2022-07-29T04:50:54;5.40;;;3.70;;
7402;SDS011;3742;48.770;11.440;2022-07-29T04:53:24;4.55;;;4.05;;
7402;SDS011;3742;48.770;11.440;2022-07-29T04:55:53;5.78;;;4.55;;
7402;SDS011;3742;48.770;11.440;2022-07-29T04:58:21;4.85;;;4.45;;
7402;SDS011;3742;48.770;11.440;2022-07-29T05:00:50;4.80;;;4.38;;
7402;SDS011;3742;48.770;11.440;2022-07-29T05:03:19;6.40;;;4.88;;
7402;SDS011;3742;48.770;11.440;2022-07-29T05:05:47;5.18;;;4.68;;
7402;SDS011;3742;48.770;11.440;2022-07-29T05:08:16;6.03;;;4.22;;
7402;SDS011;3742;48.770;11.440;2022-07-29T05:10:46;6.05;;;4.78;;
7402;SDS011;3742;48.770;11.440;2022-07-29T05:13:14;6.97;;;5.03;;
7402;SDS011;3742;48.770;11.440;2022-07-29T05:15:43;4.20;;;3.80;;
7402;SDS011;3742;48.770;11.440;2022-07-29T05:18:11;5.73;;;4.33;;
7402;SDS011;3742;48.770;11.440;2022-07-29T05:20:40;6.15;;;4.60;;
7402;SDS011;3742;48.770;11.440;2022-07-29T05:23:09;6.55;;;4.50;;
7402;SDS011;3742;48.770;11.440;2022-07-29T05:25:39;5.93;;;4.10;;
7402;SDS011;3742;48.770;11.440;2022-07-29T05:28:12;7.57;;;4.28;;
7402;SDS011;3742;48.770;11.440;2022-07-29T05:30:41;4.20;;;3.80;;
7402;SDS011;3742;48.770;11.440;2022-07-29T05:33:11;5.23;;;3.00;;
7402;SDS011;3742;48.770;11.440;2022-07-29T05:36:00;6.27;;;3.20;;
7402;SDS011;3742;48.770;11.440;2022-07-29T05:38:28;5.50;;;3.33;;
7402;SDS011;3742;48.770;11.440;2022-07-29T05:40:57;6.80;;;3.23;;
7402;SDS011;3742;48.770;11.440;2022-07-29T05:43:28;3.85;;;3.10;;
7402;SDS011;3742;48.770;11.440;2022-07-29T05:45:57;7.07;;;3.22;;
7402;SDS011;3742;48.770;11.440;2022-07-29T05:48:26;3.90;;;3.20;;
7402;SDS011;3742;48.770;11.440;2022-07-29T05:50:55;4.90;;;3.30;;
7402;SDS011;3742;48.770;11.440;2022-07-29T05:53:24;6.20;;;3.72;;
7402;SDS011;3742;48.770;11.440;2022-07-29T05:55:52;4.60;;;3.33;;
7402;SDS011;3742;48.770;11.440;2022-07-29T05:58:21;4.15;;;2.63;;
7402;SDS011;3742;48.770;11.440;2022-07-29T06:00:51;5.47;;;3.30;;
7402;SDS011;3742;48.770;11.440;2022-07-29T06:03:20;3.97;;;3.05;;
7402;SDS011;3742;48.770;11.440;2022-07-29T06:05:49;3.83;;;2.95;;
7402;SDS011;3742;48.770;11.440;2022-07-29T06:08:18;3.57;;;2.83;;
7402;SDS011;3742;48.770;11.440;2022-07-29T06:10:47;4.33;;;3.00;;
7402;SDS011;3742;48.770;11.440;2022-07-29T06:13:15;3.78;;;3.00;;
7402;SDS011;3742;48.770;11.440;2022-07-29T06:15:44;3.83;;;3.28;;
7402;SDS011;3742;48.770;11.440;2022-07-29T06:18:14;3.88;;;3.03;;
7402;SDS011;3742;48.770;11.440;2022-07-29T06:20:43;5.65;;;2.80;;
7402;SDS011;3742;48.770;11.440;2022-07-29T06:23:12;3.83;;;3.20;;
7402;SDS011;3742;48.770;11.440;2022-07-29T06:25:40;5.27;;;2.80;;
7402;SDS011;3742;48.770;11.440;2022-07-29T06:28:09;3.73;;;2.90;;
7402;SDS011;3742;48.770;11.440;2022-07-29T06:30:38;3.25;;;2.80;;
7402;SDS011;3742;48.770;11.440;2022-07-29T06:33:07;4.03;;;3.20;;
7402;SDS011;3742;48.770;11.440;2022-07-29T06:35:37;4.03;;;2.60;;
7402;SDS011;3742;48.770;11.440;2022-07-29T06:38:08;4.38;;;2.90;;
7402;SDS011;3742;48.770;11.440;2022-07-29T06:40:57;5.50;;;3.13;;
7402;SDS011;3742;48.770;11.440;2022-07-29T06:43:30;4.67;;;2.80;;
7402;SDS011;3742;48.770;11.440;2022-07-29T06:46:01;4.80;;;3.03;;
7402;SDS011;3742;48.770;11.440;2022-07-29T06:48:31;3.10;;;2.80;;
7402;SDS011;3742;48.770;11.440;2022-07-29T06:51:02;3.90;;;3.28;;
7402;SDS011;3742;48.770;11.440;2022-07-29T06:53:31;3.97;;;3.30;;
7402;SDS011;3742;48.770;11.440;2022-07-29T06:56:00;3.15;;;2.85;;
7402;SDS011;3742;48.770;11.440;2022-07-29T06:58:29;4.45;;;2.83;;
7402;SDS011;3742;48.770;11.440;2022-07-29T07:00:58;4.00;;;2.72;;
7402;SDS011;3742;48.770;11.440;2022-07-29T07:03:29;5.03;;;3.55;;
7402;SDS011;3742;48.770;11.440;2022-07-29T07:05:58;4.75;;;3.08;;
7402;SDS011;3742;48.770;11.440;2022-07-29T07:08:28;3.83;;;3.40;;
7402;SDS011;3742;48.770;11.440;2022-07-29T07:10:56;5.88;;;2.95;;
7402;SDS011;3742;48.770;11.440;2022-07-29T07:13:25;3.25;;;2.60;;
7402;SDS011;3742;48.770;11.440;2022-07-29T07:15:54;4.80;;;3.00;;
7402;SDS011;3742;48.770;11.440;2022-07-29T07:18:23;3.38;;;2.65;;
7402;SDS011;3742;48.770;11.440;2022-07-29T07:20:52;4.05;;;3.20;;
7402;SDS011;3742;48.770;11.440;2022-07-29T07:23:20;5.65;;;2.65;;
7402;SDS011;3742;48.770;11.440;2022-07-29T07:25:50;4.68;;;2.78;;
7402;SDS011;3742;48.770;11.440;2022-07-29T07:28:19;4.20;;;2.88;;
7402;SDS011;3742;48.770;11.440;2022-07-29T07:30:51;4.55;;;3.05;;
7402;SDS011;3742;48.770;11.440;2022-07-29T07:33:19;3.15;;;2.80;;
7402;SDS011;3742;48.770;11.440;2022-07-29T07:35:49;2.88;;;2.45;;
7402;SDS011;3742;48.770;11.440;2022-07-29T07:38:18;3.58;;;2.60;;
7402;SDS011;3742;48.770;11.440;2022-07-29T07:40:46;2.72;;;2.50;;
7402;SDS011;3742;48.770;11.440;2022-07-29T07:43:16;4.82;;;3.00;;
7402;SDS011;3742;48.770;11.440;2022-07-29T07:45:45;4.25;;;2.80;;
7402;SDS011;3742;48.770;11.440;2022-07-29T07:48:14;2.65;;;2.35;;
7402;SDS011;3742;48.770;11.440;2022-07-29T07:50:42;4.82;;;2.85;;
7402;SDS011;3742;48.770;11.440;2022-07-29T07:53:14;3.10;;;2.78;;
7402;SDS011;3742;48.770;11.440;2022-07-29T07:55:43;3.10;;;2.80;;
7402;SDS011;3742;48.770;11.440;2022-07-29T07:58:33;3.40;;;2.67;;
7402;SDS011;3742;48.770;11.440;2022-07-29T08:01:03;3.00;;;2.33;;
7402;SDS011;3742;48.770;11.440;2022-07-29T08:03:32;2.85;;;2.50;;
7402;SDS011;3742;48.770;11.440;2022-07-29T08:06:01;2.72;;;2.30;;
7402;SDS011;3742;48.770;11.440;2022-07-29T08:08:29;2.80;;;2.30;;
7402;SDS011;3742;48.770;11.440;2022-07-29T08:11:00;3.33;;;2.20;;
7402;SDS011;3742;48.770;11.440;2022-07-29T08:16:33;5.07;;;2.90;;
7402;SDS011;3742;48.770;11.440;2022-07-29T08:19:02;3.20;;;2.90;;
7402;SDS011;3742;48.770;11.440;2022-07-29T08:21:30;2.58;;;2.08;;
7402;SDS011;3742;48.770;11.440;2022-07-29T08:23:59;3.58;;;2.50;;
7402;SDS011;3742;48.770;11.440;2022-07-29T08:26:41;3.40;;;2.33;;
7402;SDS011;3742;48.770;11.440;2022-07-29T08:29:10;3.55;;;2.53;;
7402;SDS011;3742;48.770;11.440;2022-07-29T08:31:45;3.30;;;2.28;;
7402;SDS011;3742;48.770;11.440;2022-07-29T08:34:14;5.25;;;2.53;;
7402;SDS011;3742;48.770;11.440;2022-07-29T08:36:42;3.67;;;2.42;;
7402;SDS011;3742;48.770;11.440;2022-07-29T08:39:16;2.53;;;2.30;;
7402;SDS011;3742;48.770;11.440;2022-07-29T08:41:45;2.78;;;2.10;;
7402;SDS011;3742;48.770;11.440;2022-07-29T08:44:23;3.10;;;2.40;;
7402;SDS011;3742;48.770;11.440;2022-07-29T08:46:58;4.10;;;2.78;;
7402;SDS011;3742;48.770;11.440;2022-07-29T08:50:42;3.13;;;2.40;;
7402;SDS011;3742;48.770;11.440;2022-07-29T08:53:13;2.47;;;2.28;;
7402;SDS011;3742;48.770;11.440;2022-07-29T08:55:42;2.30;;;2.10;;
7402;SDS011;3742;48.770;11.440;2022-07-29T08:58:12;2.30;;;2.10;;
7402;SDS011;3742;48.770;11.440;2022-07-29T09:00:42;2.63;;;2.42;;
7402;SDS011;3742;48.770;11.440;2022-07-29T09:03:14;3.03;;;2.40;;
7402;SDS011;3742;48.770;11.440;2022-07-29T09:05:45;2.60;;;2.00;;
7402;SDS011;3742;48.770;11.440;2022-07-29T09:08:14;3.55;;;2.63;;
7402;SDS011;3742;48.770;11.440;2022-07-29T09:10:43;2.30;;;2.10;;
7402;SDS011;3742;48.770;11.440;2022-07-29T09:13:12;2.88;;;2.33;;
7402;SDS011;3742;48.770;11.440;2022-07-29T09:15:41;2.38;;;2.17;;
7402;SDS011;3742;48.770;11.440;2022-07-29T09:18:09;4.15;;;2.53;;
7402;SDS011;3742;48.770;11.440;2022-07-29T09:20:57;2.72;;;2.30;;
7402;SDS011;3742;48.770;11.440;2022-07-29T09:23:58;3.78;;;2.70;;
7402;SDS011;3742;48.770;11.440;2022-07-29T09:26:27;3.80;;;2.42;;
7402;SDS011;3742;48.770;11.440;2022-07-29T09:28:57;3.50;;;2.53;;
7402;SDS011;3742;48.770;11.440;2022-07-29T09:31:32;3.03;;;2.30;;
7402;SDS011;3742;48.770;11.440;2022-07-29T09:34:02;4.78;;;2.45;;
7402;SDS011;3742;48.770;11.440;2022-07-29T09:36:32;3.47;;;3.17;;
7402;SDS011;3742;48.770;11.440;2022-07-29T09:39:06;2.72;;;2.53;;
7402;SDS011;3742;48.770;11.440;2022-07-29T09:41:45;2.92;;;2.65;;
7402;SDS011;3742;48.770;11.440;2022-07-29T09:44:14;2.90;;;2.60;;
7402;SDS011;3742;48.770;11.440;2022-07-29T09:49:33;3.28;;;2.50;;
7402;SDS011;3742;48.770;11.440;2022-07-29T09:52:07;3.15;;;2.50;;
7402;SDS011;3742;48.770;11.440;2022-07-29T09:54:38;3.83;;;2.60;;
7402;SDS011;3742;48.770;11.440;2022-07-29T09:57:07;2.55;;;2.00;;
7402;SDS011;3742;48.770;11.440;2022-07-29T09:59:39;3.95;;;2.10;;
7402;SDS011;3742;48.770;11.440;2022-07-29T10:02:27;3.38;;;2.30;;
7402;SDS011;3742;48.770;11.440;2022-07-29T10:04:56;3.42;;;2.53;;
7402;SDS011;3742;48.770;11.440;2022-07-29T10:07:26;3.28;;;2.20;;
7402;SDS011;3742;48.770;11.440;2022-07-29T10:10:11;5.78;;;2.33;;
7402;SDS011;3742;48.770;11.440;2022-07-29T10:12:50;2.50;;;2.30;;
7402;SDS011;3742;48.770;11.440;2022-07-29T10:15:21;3.25;;;2.72;;
7402;SDS011;3742;48.770;11.440;2022-07-29T10:17:51;3.38;;;2.15;;
7402;SDS011;3742;48.770;11.440;2022-07-29T10:20:19;3.88;;;2.35;;
7402;SDS011;3742;48.770;11.440;2022-07-29T10:22:50;2.72;;;2.38;;
7402;SDS011;3742;48.770;11.440;2022-07-29T10:25:21;2.70;;;2.00;;
7402;SDS011;3742;48.770;11.440;2022-07-29T10:27:53;2.30;;;2.10;;
7402;SDS011;3742;48.770;11.440;2022-07-29T10:30:22;2.55;;;2.08;;
7402;SDS011;3742;48.770;11.440;2022-07-29T10:35:44;2.10;;;1.90;;
7402;SDS011;3742;48.770;11.440;2022-07-29T10:41:19;2.17;;;1.98;;
7402;SDS011;3742;48.770;11.440;2022-07-29T10:44:12;2.45;;;2.22;;
7402;SDS011;3742;48.770;11.440;2022-07-29T10:46:45;2.75;;;2.33;;
7402;SDS011;3742;48.770;11.440;2022-07-29T10:49:15;3.17;;;2.38;;
7402;SDS011;3742;48.770;11.440;2022-07-29T10:51:51;4.80;;;2.40;;
7402;SDS011;3742;48.770;11.440;2022-07-29T10:54:45;3.75;;;1.83;;
7402;SDS011;3742;48.770;11.440;2022-07-29T10:57:18;2.88;;;2.00;;
7402;SDS011;3742;48.770;11.440;2022-07-29T11:00:29;4.00;;;2.10;;
7402;SDS011;3742;48.770;11.440;2022-07-29T11:02:59;2.63;;;2.10;;
7402;SDS011;3742;48.770;11.440;2022-07-29T11:08:24;2.42;;;2.22;;
7402;SDS011;3742;48.770;11.440;2022-07-29T11:14:00;2.08;;;1.90;;
7402;SDS011;3742;48.770;11.440;2022-07-29T11:19:33;2.40;;;2.20;;
7402;SDS011;3742;48.770;11.440;2022-07-29T11:22:07;2.20;;;2.00;;
7402;SDS011;3742;48.770;11.440;2022-07-29T11:24:36;3.05;;;2.33;;
7402;SDS011;3742;48.770;11.440;2022-07-29T11:27:18;2.33;;;2.00;;
7402;SDS011;3742;48.770;11.440;2022-07-29T11:29:53;3.58;;;2.40;;
7402;SDS011;3742;48.770;11.440;2022-07-29T11:32:35;2.58;;;2.22;;
7402;SDS011;3742;48.770;11.440;2022-07-29T11:35:12;2.97;;;2.30;;
7402;SDS011;3742;48.770;11.440;2022-07-29T11:38:23;2.40;;;2.00;;
7402;SDS011;3742;48.770;11.440;2022-07-29T11:43:56;4.00;;;2.20;;
7402;SDS011;3742;48.770;11.440;2022-07-29T11:46:44;2.33;;;2.13;;
7402;SDS011;3742;48.770;11.440;2022-07-29T11:49:18;2.20;;;2.00;;
7402;SDS011;3742;48.770;11.440;2022-07-29T11:51:59;2.58;;;2.22;;
7402;SDS011;3742;48.770;11.440;2022-07-29T11:54:31;2.90;;;1.80;;
7402;SDS011;3742;48.770;11.440;2022-07-29T11:57:20;4.32;;;2.30;;
7402;SDS011;3742;48.770;11.440;2022-07-29T12:00:06;2.35;;;1.85;;
7402;SDS011;3742;48.770;11.440;2022-07-29T12:02:56;3.83;;;2.10;;
7402;SDS011;3742;48.770;11.440;2022-07-29T12:05:33;2.30;;;2.10;;
7402;SDS011;3742;48.770;11.440;2022-07-29T12:08:18;2.08;;;1.50;;
7402;SDS011;3742;48.770;11.440;2022-07-29T12:10:49;1.98;;;1.80;;
7402;SDS011;3742;48.770;11.440;2022-07-29T12:13:19;1.90;;;1.80;;
7402;SDS011;3742;48.770;11.440;2022-07-29T12:16:04;1.95;;;1.80;;
7402;SDS011;3742;48.770;11.440;2022-07-29T12:18:33;1.92;;;1.80;;
7402;SDS011;3742;48.770;11.440;2022-07-29T12:21:02;3.50;;;1.70;;
7402;SDS011;3742;48.770;11.440;2022-07-29T12:23:32;2.35;;;1.77;;
7402;SDS011;3742;48.770;11.440;2022-07-29T12:26:03;1.70;;;1.60;;
7402;SDS011;3742;48.770;11.440;2022-07-29T12:28:37;3.97;;;1.98;;
7402;SDS011;3742;48.770;11.440;2022-07-29T12:31:11;2.55;;;2.28;;
7402;SDS011;3742;48.770;11.440;2022-07-29T12:34:01;2.67;;;2.20;;
7402;SDS011;3742;48.770;11.440;2022-07-29T12:36:29;3.40;;;2.00;;
7402;SDS011;3742;48.770;11.440;2022-07-29T12:38:58;2.70;;;2.40;;
7402;SDS011;3742;48.770;11.440;2022-07-29T12:41:27;5.13;;;2.30;;
7402;SDS011;3742;48.770;11.440;2022-07-29T12:43:55;2.58;;;2.35;;
7402;SDS011;3742;48.770;11.440;2022-07-29T12:46:25;4.68;;;2.38;;
7402;SDS011;3742;48.770;11.440;2022-07-29T12:48:54;2.20;;;2.00;;
7402;SDS011;3742;48.770;11.440;2022-07-29T12:51:30;3.00;;;2.17;;
7402;SDS011;3742;48.770;11.440;2022-07-29T12:54:03;3.92;;;2.40;;
7402;SDS011;3742;48.770;11.440;2022-07-29T12:56:33;3.83;;;2.22;;
7402;SDS011;3742;48.770;11.440;2022-07-29T12:59:11;3.05;;;2.70;;
7402;SDS011;3742;48.770;11.440;2022-07-29T13:01:43;2.47;;;2.28;;
7402;SDS011;3742;48.770;11.440;2022-07-29T13:04:11;3.55;;;2.65;;
7402;SDS011;3742;48.770;11.440;2022-07-29T13:06:57;10.77;;;2.40;;
7402;SDS011;3742;48.770;11.440;2022-07-29T13:09:35;5.88;;;2.75;;
7402;SDS011;3742;48.770;11.440;2022-07-29T13:12:05;5.57;;;2.78;;
7402;SDS011;3742;48.770;11.440;2022-07-29T13:14:36;4.32;;;2.33;;
7402;SDS011;3742;48.770;11.440;2022-07-29T13:17:08;3.50;;;2.60;;
7402;SDS011;3742;48.770;11.440;2022-07-29T13:19:38;7.07;;;2.95;;
7402;SDS011;3742;48.770;11.440;2022-07-29T13:22:08;6.28;;;2.88;;
7402;SDS011;3742;48.770;11.440;2022-07-29T13:24:49;5.07;;;2.72;;
7402;SDS011;3742;48.770;11.440;2022-07-29T13:27:19;4.68;;;3.17;;
7402;SDS011;3742;48.770;11.440;2022-07-29T13:29:48;4.93;;;3.40;;
7402;SDS011;3742;48.770;11.440;2022-07-29T13:32:20;6.25;;;3.22;;
7402;SDS011;3742;48.770;11.440;2022-07-29T13:34:55;4.63;;;3.10;;
7402;SDS011;3742;48.770;11.440;2022-07-29T13:37:23;3.88;;;3.33;;
7402;SDS011;3742;48.770;11.440;2022-07-29T13:39:52;5.85;;;3.40;;
7402;SDS011;3742;48.770;11.440;2022-07-29T13:42:22;4.78;;;2.95;;
7402;SDS011;3742;48.770;11.440;2022-07-29T13:44:51;3.67;;;3.17;;
7402;SDS011;3742;48.770;11.440;2022-07-29T13:47:22;6.53;;;3.15;;
7402;SDS011;3742;48.770;11.440;2022-07-29T13:49:59;8.18;;;3.60;;
7402;SDS011;3742;48.770;11.440;2022-07-29T13:52:28;4.05;;;3.35;;
7402;SDS011;3742;48.770;11.440;2022-07-29T13:54:56;3.53;;;3.22;;
7402;SDS011;3742;48.770;11.440;2022-07-29T13:57:25;7.30;;;3.72;;
7402;SDS011;3742;48.770;11.440;2022-07-29T13:59:53;7.25;;;3.38;;
7402;SDS011;3742;48.770;11.440;2022-07-29T14:02:23;6.30;;;3.13;;
7402;SDS011;3742;48.770;11.440;2022-07-29T14:04:52;6.40;;;3.30;;
7402;SDS011;3742;48.770;11.440;2022-07-29T14:07:21;5.20;;;3.65;;
7402;SDS011;3742;48.770;11.440;2022-07-29T14:09:50;3.95;;;3.50;;
7402;SDS011;3742;48.770;11.440;2022-07-29T14:12:18;4.88;;;3.47;;
7402;SDS011;3742;48.770;11.440;2022-07-29T14:14:48;3.50;;;2.88;;
7402;SDS011;3742;48.770;11.440;2022-07-29T14:17:17;4.65;;;3.83;;
7402;SDS011;3742;48.770;11.440;2022-07-29T14:19:46;5.25;;;3.22;;
7402;SDS011;3742;48.770;11.440;2022-07-29T14:22:15;5.13;;;4.03;;
7402;SDS011;3742;48.770;11.440;2022-07-29T14:24:48;3.75;;;3.08;;
7402;SDS011;3742;48.770;11.440;2022-07-29T14:27:17;5.18;;;3.13;;
7402;SDS011;3742;48.770;11.440;2022-07-29T14:30:04;3.70;;;3.35;;
7402;SDS011;3742;48.770;11.440;2022-07-29T14:32:33;4.22;;;3.38;;
7402;SDS011;3742;48.770;11.440;2022-07-29T14:35:03;6.68;;;4.07;;
7402;SDS011;3742;48.770;11.440;2022-07-29T14:37:32;5.03;;;3.63;;
7402;SDS011;3742;48.770;11.440;2022-07-29T14:40:07;4.15;;;3.17;;
7402;SDS011;3742;48.770;11.440;2022-07-29T14:42:36;5.35;;;3.92;;
7402;SDS011;3742;48.770;11.440;2022-07-29T14:45:06;5.75;;;4.05;;
7402;SDS011;3742;48.770;11.440;2022-07-29T14:47:35;3.65;;;3.35;;
7402;SDS011;3742;48.770;11.440;2022-07-29T14:50:06;3.92;;;3.53;;
7402;SDS011;3742;48.770;11.440;2022-07-29T14:52:38;3.22;;;2.97;;
7402;SDS011;3742;48.770;11.440;2022-07-29T14:55:07;5.60;;;3.90;;
7402;SDS011;3742;48.770;11.440;2022-07-29T14:57:46;4.00;;;3.60;;
7402;SDS011;3742;48.770;11.440;2022-07-29T15:00:15;5.72;;;3.92;;
7402;SDS011;3742;48.770;11.440;2022-07-29T15:02:43;5.93;;;3.78;;
7402;SDS011;3742;48.770;11.440;2022-07-29T15:05:29;4.20;;;3.90;;
7402;SDS011;3742;48.770;11.440;2022-07-29T15:07:58;5.97;;;3.42;;
7402;SDS011;3742;48.770;11.440;2022-07-29T15:10:27;5.10;;;4.07;;
7402;SDS011;3742;48.770;11.440;2022-07-29T15:12:55;5.97;;;3.90;;
7402;SDS011;3742;48.770;11.440;2022-07-29T15:15:24;9.55;;;4.68;;
7402;SDS011;3742;48.770;11.440;2022-07-29T15:17:52;6.97;;;4.35;;
7402;SDS011;3742;48.770;11.440;2022-07-29T15:20:21;4.38;;;3.95;;
7402;SDS011;3742;48.770;11.440;2022-07-29T15:22:53;4.45;;;3.83;;
7402;SDS011;3742;48.770;11.440;2022-07-29T15:25:22;5.95;;;3.55;;
7402;SDS011;3742;48.770;11.440;2022-07-29T15:27:54;5.28;;;3.75;;
7402;SDS011;3742;48.770;11.440;2022-07-29T15:30:28;4.00;;;3.60;;
7402;SDS011;3742;48.770;11.440;2022-07-29T15:33:00;6.72;;;3.42;;
7402;SDS011;3742;48.770;11.440;2022-07-29T15:35:29;3.88;;;3.38;;
7402;SDS011;3742;48.770;11.440;2022-07-29T15:37:59;4.90;;;2.90;;
7402;SDS011;3742;48.770;11.440;2022-07-29T15:40:28;6.35;;;3.22;;
7402;SDS011;3742;48.770;11.440;2022-07-29T15:42:56;4.32;;;3.40;;
7402;SDS011;3742;48.770;11.440;2022-07-29T15:45:27;6.93;;;3.17;;
7402;SDS011;3742;48.770;11.440;2022-07-29T15:47:59;4.35;;;2.97;;
7402;SDS011;3742;48.770;11.440;2022-07-29T15:50:27;4.95;;;3.20;;
7402;SDS011;3742;48.770;11.440;2022-07-29T15:52:55;4.78;;;3.40;;